Time;durP1;ratioP1;P1;durP2;ratioP2;P2;SDS_P1;SDS_P2;PMS_P1;PMS_P2;Temp;Humidity;BMP_temperature;BMP_pressure;BME280_temperature;BME280_humidity;BME280_pressure;Samples;Min_cycle;Max_cycle;Signal;HPM_P1;HPM_P2
2023/10/20 00:01:54;;;;;;;;;;;13.50;85.90;;;;;;4931556;29;19922;-77
2023/10/20 00:04:22;;;;;;;;;;;13.50;85.90;;;;;;4931281;29;20129;-76
2023/10/20 00:06:47;;;;;;;;;;;13.50;85.90;;;;;;4930924;29;19915;-77
2023/10/20 00:09:14;;;;;;;;;;;13.50;85.90;;;;;;4931595;29;20014;-77
2023/10/20 00:11:43;;;;;;;;;;;13.50;85.90;;;;;;4931378;29;19915;-77
2023/10/20 00:14:09;;;;;;;;;;;13.60;86.00;;;;;;4931365;29;19915;-77
2023/10/20 00:16:34;;;;;;;;;;;13.60;85.90;;;;;;4931268;29;19914;-77
2023/10/20 00:19:03;;;;;;;;;;;13.70;85.90;;;;;;4931477;29;20025;-76
2023/10/20 00:21:31;;;;;;;;;;;13.70;85.90;;;;;;4931317;29;20371;-77
2023/10/20 00:23:57;;;;;;;;;;;13.70;85.80;;;;;;4931111;29;20267;-77
2023/10/20 00:26:23;;;;;;;;;;;13.80;85.80;;;;;;4931232;29;19915;-77
2023/10/20 00:28:49;;;;;;;;;;;13.80;85.70;;;;;;4931138;29;20030;-77
2023/10/20 00:31:16;;;;;;;;;;;13.90;85.70;;;;;;4931094;29;19915;-77
2023/10/20 00:33:43;;;;;;;;;;;13.90;85.70;;;;;;4930967;29;19921;-77
2023/10/20 00:36:09;;;;;;;;;;;13.90;85.60;;;;;;4931077;29;19914;-77
2023/10/20 00:38:35;;;;;;;;;;;14.00;85.60;;;;;;4931004;29;20005;-76
2023/10/20 00:41:01;;;;;;;;;;;14.00;85.60;;;;;;4930947;29;20033;-77
2023/10/20 00:43:34;;;;;;;;;;;14.00;85.60;;;;;;4931018;29;19911;-77
2023/10/20 00:46:00;;;;;;;;;;;14.10;85.70;;;;;;4930938;29;20291;-77
2023/10/20 00:48:26;;;;;;;;;;;14.10;85.70;;;;;;4930786;29;19915;-77
2023/10/20 00:50:51;;;;;;;;;;;14.10;85.70;;;;;;4929639;29;19933;-77
2023/10/20 00:53:17;;;;;;;;;;;14.00;85.80;;;;;;4930784;29;19915;-77
2023/10/20 00:55:43;;;;;;;;;;;14.10;85.80;;;;;;4930779;29;19915;-77
2023/10/20 00:58:09;;;;;;;;;;;14.10;85.80;;;;;;4930988;29;19923;-77
2023/10/20 01:00:34;;;;;;;;;;;14.00;85.80;;;;;;4930555;29;19954;-77
2023/10/20 01:03:00;;;;;;;;;;;14.10;85.90;;;;;;4929455;29;19926;-77
2023/10/20 01:05:26;;;;;;;;;;;14.00;85.80;;;;;;4930718;29;20056;-77
2023/10/20 01:07:52;;;;;;;;;;;14.10;85.90;;;;;;4930763;29;20336;-77
2023/10/20 01:10:18;;;;;;;;;;;14.10;85.80;;;;;;4930677;29;19915;-77
2023/10/20 01:12:44;;;;;;;;;;;14.10;85.80;;;;;;4930648;29;19911;-77
2023/10/20 01:15:11;;;;;;;;;;;14.10;86.30;;;;;;4929463;29;19915;-77
2023/10/20 01:17:37;;;;;;;;;;;14.10;85.90;;;;;;4930860;29;19926;-77
2023/10/20 01:20:04;;;;;;;;;;;14.10;86.00;;;;;;4934621;29;20260;-77
2023/10/20 01:22:30;;;;;;;;;;;14.10;86.10;;;;;;4933086;29;20375;-77
2023/10/20 01:24:55;;;;;;;;;;;14.10;86.20;;;;;;4933180;29;20332;-77
2023/10/20 01:27:21;;;;;;;;;;;14.10;86.20;;;;;;4934377;29;19961;-77
2023/10/20 01:29:47;;;;;;;;;;;14.20;86.20;;;;;;4934452;29;20010;-77
2023/10/20 01:32:12;;;;;;;;;;;14.20;86.20;;;;;;4932859;29;20371;-76
2023/10/20 01:34:38;;;;;;;;;;;14.20;86.10;;;;;;4934351;29;19922;-77
2023/10/20 01:37:04;;;;;;;;;;;14.20;86.20;;;;;;4934260;29;20428;-77
2023/10/20 01:39:29;;;;;;;;;;;14.30;86.30;;;;;;4934494;29;19915;-77
2023/10/20 01:41:55;;;;;;;;;;;14.30;86.20;;;;;;4934201;29;19918;-77
2023/10/20 01:44:21;;;;;;;;;;;14.30;86.20;;;;;;4934280;29;20034;-77
2023/10/20 01:46:49;;;;;;;;;;;14.40;86.20;;;;;;4933997;29;19915;-77
2023/10/20 01:49:15;;;;;;;;;;;14.40;86.20;;;;;;4933937;29;20081;-77
2023/10/20 01:51:41;;;;;;;;;;;14.30;86.20;;;;;;4933977;29;19920;-77
2023/10/20 01:54:06;;;;;;;;;;;14.30;86.30;;;;;;4933773;29;19922;-77
2023/10/20 01:56:32;;;;;;;;;;;14.30;86.30;;;;;;4933801;29;20025;-77
2023/10/20 01:58:58;;;;;;;;;;;14.30;86.30;;;;;;4964676;28;19919;-77
2023/10/20 02:01:23;;;;;;;;;;;14.40;86.40;;;;;;4932301;29;19923;-77
2023/10/20 02:03:49;;;;;;;;;;;14.40;86.30;;;;;;4932433;29;19925;-77
2023/10/20 02:06:16;;;;;;;;;;;14.40;86.30;;;;;;4933742;29;19946;-77
2023/10/20 02:08:41;;;;;;;;;;;14.40;86.30;;;;;;4933786;29;19919;-77
2023/10/20 02:11:08;;;;;;;;;;;14.40;86.30;;;;;;4933625;29;19921;-77
2023/10/20 02:13:35;;;;;;;;;;;14.30;86.30;;;;;;4932203;29;19914;-77
2023/10/20 02:16:01;;;;;;;;;;;14.30;86.30;;;;;;4933564;29;20542;-77
2023/10/20 02:18:26;;;;;;;;;;;14.30;86.30;;;;;;4933618;29;20006;-77
2023/10/20 02:20:56;;;;;;;;;;;14.30;86.30;;;;;;4933418;29;19994;-77
2023/10/20 02:23:22;;;;;;;;;;;14.30;86.30;;;;;;4933448;29;19997;-77
2023/10/20 02:25:55;;;;;;;;;;;14.30;86.40;;;;;;4932096;29;20034;-77
2023/10/20 02:28:21;;;;;;;;;;;14.30;86.40;;;;;;4933545;29;19915;-77
2023/10/20 02:30:47;;;;;;;;;;;14.30;86.40;;;;;;4931329;29;19915;-76
2023/10/20 02:33:12;;;;;;;;;;;14.30;86.30;;;;;;4964108;28;20002;-77
2023/10/20 02:35:41;;;;;;;;;;;14.30;86.30;;;;;;4933363;29;19915;-77
2023/10/20 02:38:06;;;;;;;;;;;14.30;86.20;;;;;;4933075;29;19925;-77
2023/10/20 02:40:33;;;;;;;;;;;14.30;86.30;;;;;;4933004;29;20001;-77
2023/10/20 02:42:58;;;;;;;;;;;14.30;86.30;;;;;;4933478;29;19917;-78
2023/10/20 02:45:24;;;;;;;;;;;14.30;86.30;;;;;;4933061;29;19922;-77
2023/10/20 02:47:52;;;;;;;;;;;14.30;86.30;;;;;;4933187;29;19922;-77
2023/10/20 02:50:18;;;;;;;;;;;14.30;86.20;;;;;;4933191;29;19919;-78
2023/10/20 02:52:44;;;;;;;;;;;14.30;86.20;;;;;;4931446;29;19986;-78
2023/10/20 02:55:09;;;;;;;;;;;14.30;86.20;;;;;;4932825;29;19915;-77
2023/10/20 02:57:38;;;;;;;;;;;14.30;86.20;;;;;;4932735;29;19969;-77
2023/10/20 03:00:04;;;;;;;;;;;14.30;86.20;;;;;;4932808;29;19915;-77
2023/10/20 03:02:30;;;;;;;;;;;14.30;86.30;;;;;;4932547;29;19958;-77
2023/10/20 03:04:56;;;;;;;;;;;14.30;86.30;;;;;;4932699;29;19962;-77
2023/10/20 03:07:27;;;;;;;;;;;14.30;86.20;;;;;;4947291;29;19949;-77
2023/10/20 03:09:52;;;;;;;;;;;14.20;86.10;;;;;;4932689;29;19958;-77
2023/10/20 03:12:18;;;;;;;;;;;14.20;86.10;;;;;;4932408;29;20406;-77
2023/10/20 03:14:44;;;;;;;;;;;14.20;86.10;;;;;;4932462;29;19915;-77
2023/10/20 03:17:11;;;;;;;;;;;14.10;86.00;;;;;;4932317;29;20006;-77
2023/10/20 03:19:37;;;;;;;;;;;14.10;86.00;;;;;;4962829;28;19922;-77
2023/10/20 03:22:02;;;;;;;;;;;14.00;86.00;;;;;;4931019;29;19915;-77
2023/10/20 03:24:28;;;;;;;;;;;14.00;86.10;;;;;;4932401;29;19915;-77
2023/10/20 03:26:54;;;;;;;;;;;14.00;86.20;;;;;;4932331;29;19926;-77
2023/10/20 03:29:19;;;;;;;;;;;13.90;86.10;;;;;;4932255;29;19915;-77
2023/10/20 03:31:45;;;;;;;;;;;13.90;86.10;;;;;;4963024;28;20285;-77
2023/10/20 03:34:10;;;;;;;;;;;13.80;86.10;;;;;;4932030;29;20025;-77
2023/10/20 03:36:36;;;;;;;;;;;13.80;86.20;;;;;;4932004;29;19919;-77
2023/10/20 03:39:02;;;;;;;;;;;13.80;86.20;;;;;;4932543;29;19963;-77
2023/10/20 03:41:29;;;;;;;;;;;13.70;86.20;;;;;;4929728;29;20009;-77
2023/10/20 03:43:54;;;;;;;;;;;13.70;86.30;;;;;;4932026;29;20009;-77
2023/10/20 03:46:20;;;;;;;;;;;13.70;86.30;;;;;;4932067;29;19954;-77
2023/10/20 03:48:46;;;;;;;;;;;13.70;86.20;;;;;;4932013;29;19923;-77
2023/10/20 03:51:12;;;;;;;;;;;13.70;86.20;;;;;;4962754;28;19915;-77
2023/10/20 03:53:46;;;;;;;;;;;13.70;86.10;;;;;;4931748;29;19954;-77
2023/10/20 03:56:12;;;;;;;;;;;13.70;86.30;;;;;;4931854;29;20032;-78
2023/10/20 03:58:38;;;;;;;;;;;13.70;86.30;;;;;;4931732;29;19950;-78
2023/10/20 04:01:06;;;;;;;;;;;13.70;86.20;;;;;;4931480;29;19962;-77
2023/10/20 04:03:40;;;;;;;;;;;13.70;86.20;;;;;;5105607;27;19912;-76
2023/10/20 04:06:08;;;;;;;;;;;13.70;86.20;;;;;;5104237;28;20372;-76
2023/10/20 04:08:34;;;;;;;;;;;13.70;86.20;;;;;;5105516;28;19912;-77
2023/10/20 04:10:59;;;;;;;;;;;13.70;86.20;;;;;;5105477;28;19984;-76
2023/10/20 04:13:25;;;;;;;;;;;13.70;86.20;;;;;;5103849;28;19918;-76
2023/10/20 04:15:54;;;;;;;;;;;13.70;86.20;;;;;;5104128;28;19955;-76
2023/10/20 04:18:20;;;;;;;;;;;13.70;86.10;;;;;;5104150;28;20322;-77
2023/10/20 04:20:48;;;;;;;;;;;13.60;86.00;;;;;;5105297;28;19965;-76
2023/10/20 04:23:17;;;;;;;;;;;13.60;86.00;;;;;;5105201;28;19961;-77
2023/10/20 04:25:55;;;;;;;;;;;13.50;86.00;;;;;;5105172;28;19920;-77
2023/10/20 04:28:28;;;;;;;;;;;13.50;86.00;;;;;;5105254;28;19912;-76
2023/10/20 04:47:42;;;;;;;;;;;13.40;86.00;;;;;;5104826;28;20398;-76
2023/10/20 04:57:57;;;;;;;;;;;13.70;86.20;;;;;;5104757;28;19912;-76
2023/10/20 05:07:50;;;;;;;;;;;14.10;86.30;;;;;;5125073;28;19911;-77
2023/10/20 05:10:17;;;;;;;;;;;14.10;86.30;;;;;;5124784;28;19912;-77
2023/10/20 05:12:43;;;;;;;;;;;14.10;86.30;;;;;;5106304;28;19918;-77
2023/10/20 05:15:13;;;;;;;;;;;14.20;86.30;;;;;;5092485;28;19912;-77
2023/10/20 05:17:38;;;;;;;;;;;14.20;86.30;;;;;;5092582;28;19919;-77
2023/10/20 05:20:13;;;;;;;;;;;14.20;86.30;;;;;;5111181;28;19912;-77
2023/10/20 05:22:39;;;;;;;;;;;14.20;86.30;;;;;;5092605;28;19916;-77
2023/10/20 05:25:06;;;;;;;;;;;14.10;86.20;;;;;;5092902;28;19919;-75
2023/10/20 05:27:31;;;;;;;;;;;14.10;86.30;;;;;;5092756;28;19915;-75
2023/10/20 05:29:57;;;;;;;;;;;14.10;86.40;;;;;;5110539;28;20002;-75
2023/10/20 05:32:22;;;;;;;;;;;14.20;86.50;;;;;;5110107;28;20298;-75
2023/10/20 05:34:53;;;;;;;;;;;14.20;86.40;;;;;;5110545;28;19973;-75
2023/10/20 05:37:21;;;;;;;;;;;14.30;86.40;;;;;;5093053;28;19922;-74
2023/10/20 05:39:47;;;;;;;;;;;14.40;86.40;;;;;;5110578;28;19965;-75
2023/10/20 05:42:12;;;;;;;;;;;14.40;86.40;;;;;;5092139;28;20286;-75
2023/10/20 05:44:47;;;;;;;;;;;14.50;86.40;;;;;;5110342;28;19916;-75
2023/10/20 05:47:13;;;;;;;;;;;14.50;86.30;;;;;;5110423;28;20339;-75
2023/10/20 05:49:39;;;;;;;;;;;14.50;86.30;;;;;;5110420;28;19962;-75
2023/10/20 05:52:05;;;;;;;;;;;14.60;86.40;;;;;;5092089;28;20011;-75
2023/10/20 05:54:31;;;;;;;;;;;14.60;86.40;;;;;;5110312;28;19915;-76
2023/10/20 05:56:57;;;;;;;;;;;14.60;86.40;;;;;;5091869;28;20281;-76
2023/10/20 05:59:22;;;;;;;;;;;14.60;86.20;;;;;;5109823;28;19915;-75
2023/10/20 06:01:48;;;;;;;;;;;14.70;86.20;;;;;;5109597;28;20014;-75
2023/10/20 06:04:13;;;;;;;;;;;14.70;86.70;;;;;;5110026;28;19919;-76
2023/10/20 06:06:39;;;;;;;;;;;14.70;86.20;;;;;;5109937;28;19918;-76
2023/10/20 06:09:06;;;;;;;;;;;14.70;86.20;;;;;;5109808;28;19935;-76
2023/10/20 06:11:35;;;;;;;;;;;14.70;86.20;;;;;;5109906;28;19912;-75
2023/10/20 06:14:01;;;;;;;;;;;14.70;86.30;;;;;;5091367;28;19918;-76
2023/10/20 06:16:26;;;;;;;;;;;14.70;86.40;;;;;;5109623;28;19935;-75
2023/10/20 06:18:52;;;;;;;;;;;14.70;86.40;;;;;;5109757;28;19911;-76
2023/10/20 06:21:17;;;;;;;;;;;14.70;86.40;;;;;;5109623;28;20007;-75
2023/10/20 06:23:43;;;;;;;;;;;14.80;86.50;;;;;;5109489;28;19990;-75
2023/10/20 06:26:09;;;;;;;;;;;14.80;86.50;;;;;;5108606;28;19970;-75
2023/10/20 06:28:35;;;;;;;;;;;14.80;86.40;;;;;;5091064;28;20014;-75
2023/10/20 06:31:10;;;;;;;;;;;14.80;86.40;;;;;;5091013;28;19918;-76
2023/10/20 06:33:35;;;;;;;;;;;14.80;86.30;;;;;;5092340;28;19958;-76
2023/10/20 06:36:26;;;;;;;;;;;14.80;86.30;;;;;;5109328;28;19955;-76
2023/10/20 06:38:47;;;;;;;;;;;14.80;86.30;;;;;;5093219;28;19912;-76
2023/10/20 06:41:15;;;;;;;;;;;14.80;86.30;;;;;;5109243;28;19919;-75
2023/10/20 06:43:40;;;;;;;;;;;14.80;86.30;;;;;;5109538;28;19907;-76
2023/10/20 06:46:06;;;;;;;;;;;14.80;86.40;;;;;;5091042;28;19915;-76
2023/10/20 06:48:32;;;;;;;;;;;14.80;86.40;;;;;;5073799;28;19916;-76
2023/10/20 06:50:57;;;;;;;;;;;14.80;86.50;;;;;;5109086;28;20388;-76
2023/10/20 06:53:23;;;;;;;;;;;14.80;86.50;;;;;;5073648;28;20385;-76
2023/10/20 06:55:49;;;;;;;;;;;14.80;86.50;;;;;;5108902;28;20282;-76
2023/10/20 06:58:17;;;;;;;;;;;14.80;86.50;;;;;;5073922;28;20289;-76
2023/10/20 07:00:46;;;;;;;;;;;14.70;86.40;;;;;;5108195;28;20271;-75
2023/10/20 07:03:12;;;;;;;;;;;14.80;86.50;;;;;;5108187;28;19923;-76
2023/10/20 07:05:38;;;;;;;;;;;14.80;86.50;;;;;;5108861;28;20244;-75
2023/10/20 07:08:05;;;;;;;;;;;14.80;86.40;;;;;;5108624;28;19915;-76
2023/10/20 07:10:37;;;;;;;;;;;14.80;86.40;;;;;;5108310;28;19912;-76
2023/10/20 07:13:04;;;;;;;;;;;14.80;86.40;;;;;;5108237;28;19911;-76
2023/10/20 07:15:29;;;;;;;;;;;14.80;86.40;;;;;;5108634;28;20279;-76
2023/10/20 07:17:55;;;;;;;;;;;14.80;86.50;;;;;;5108603;28;19912;-76
2023/10/20 07:20:21;;;;;;;;;;;14.80;86.50;;;;;;5090197;28;20326;-76
2023/10/20 07:22:46;;;;;;;;;;;14.90;86.60;;;;;;5108283;28;19915;-76
2023/10/20 07:25:13;;;;;;;;;;;14.90;86.50;;;;;;5108414;28;19993;-76
2023/10/20 07:27:39;;;;;;;;;;;14.90;86.50;;;;;;5108379;28;19984;-76
2023/10/20 07:30:06;;;;;;;;;;;14.90;86.50;;;;;;5108551;28;19969;-76
2023/10/20 07:32:33;;;;;;;;;;;14.90;86.40;;;;;;5107846;28;19961;-76
2023/10/20 07:35:00;;;;;;;;;;;15.00;86.50;;;;;;5108009;28;19908;-75
2023/10/20 07:37:26;;;;;;;;;;;15.00;86.40;;;;;;5107829;28;20455;-76
2023/10/20 07:39:52;;;;;;;;;;;15.00;86.40;;;;;;5108565;28;19923;-76
2023/10/20 07:42:19;;;;;;;;;;;15.00;86.50;;;;;;5108154;28;19912;-75
2023/10/20 07:44:45;;;;;;;;;;;15.00;86.50;;;;;;5107659;28;19957;-76
2023/10/20 07:47:11;;;;;;;;;;;15.10;86.50;;;;;;5107971;28;19924;-76
2023/10/20 07:49:37;;;;;;;;;;;15.10;86.50;;;;;;5089595;28;20003;-76
2023/10/20 07:52:03;;;;;;;;;;;15.10;86.50;;;;;;5107624;28;20007;-76
2023/10/20 07:54:29;;;;;;;;;;;15.10;86.40;;;;;;5072341;28;19924;-75
2023/10/20 07:56:56;;;;;;;;;;;15.10;86.50;;;;;;5107275;28;20021;-75
2023/10/20 07:59:21;;;;;;;;;;;15.10;86.60;;;;;;5107593;28;19928;-76
2023/10/20 08:01:47;;;;;;;;;;;15.10;86.60;;;;;;5088703;28;19916;-75
2023/10/20 08:04:12;;;;;;;;;;;15.20;86.70;;;;;;5107127;28;19920;-75
2023/10/20 08:06:38;;;;;;;;;;;15.20;86.70;;;;;;5107496;28;19933;-75
2023/10/20 08:09:04;;;;;;;;;;;15.20;86.80;;;;;;5089708;28;20010;-74
2023/10/20 08:11:30;;;;;;;;;;;15.30;86.80;;;;;;5108282;28;19911;-75
2023/10/20 08:13:55;;;;;;;;;;;15.30;86.70;;;;;;5108695;28;19915;-76
2023/10/20 08:16:21;;;;;;;;;;;15.40;86.80;;;;;;5108117;28;20291;-76
2023/10/20 08:18:47;;;;;;;;;;;15.50;86.80;;;;;;5107520;28;19908;-75
2023/10/20 08:21:14;;;;;;;;;;;15.50;86.70;;;;;;5107420;28;19954;-76
2023/10/20 08:23:40;;;;;;;;;;;15.60;86.70;;;;;;5107395;28;19919;-75
2023/10/20 08:26:05;;;;;;;;;;;15.60;86.70;;;;;;5107279;28;20233;-75
2023/10/20 08:28:31;;;;;;;;;;;15.60;86.70;;;;;;5107601;28;19923;-75
2023/10/20 08:31:07;;;;;;;;;;;15.60;86.70;;;;;;5107591;28;19908;-75
2023/10/20 08:33:33;;;;;;;;;;;15.60;86.70;;;;;;5106915;28;19919;-75
2023/10/20 08:36:07;;;;;;;;;;;15.60;86.80;;;;;;5106795;28;20350;-76
2023/10/20 08:38:33;;;;;;;;;;;15.60;86.80;;;;;;5088834;28;19908;-76
2023/10/20 08:40:59;;;;;;;;;;;15.60;86.80;;;;;;5107299;28;20413;-77
2023/10/20 08:43:25;;;;;;;;;;;15.60;86.80;;;;;;5107136;28;19943;-76
2023/10/20 08:45:52;;;;;;;;;;;15.70;86.80;;;;;;5106980;28;19920;-77
2023/10/20 08:48:17;;;;;;;;;;;15.70;86.90;;;;;;5088708;28;20003;-76
2023/10/20 08:50:44;;;;;;;;;;;15.70;86.80;;;;;;5110496;28;20007;-76
2023/10/20 08:53:12;;;;;;;;;;;15.70;86.80;;;;;;5110302;28;19921;-76
2023/10/20 08:55:38;;;;;;;;;;;15.60;86.80;;;;;;5109743;28;19912;-76
2023/10/20 08:58:03;;;;;;;;;;;15.60;86.90;;;;;;5112079;28;20399;-77
2023/10/20 09:00:30;;;;;;;;;;;15.50;86.90;;;;;;5104695;27;19915;-78
2023/10/20 09:02:59;;;;;;;;;;;15.50;87.00;;;;;;5093505;28;19968;-77
2023/10/20 09:05:26;;;;;;;;;;;15.50;87.10;;;;;;5112514;28;20003;-76
2023/10/20 09:07:53;;;;;;;;;;;15.60;87.20;;;;;;5112414;28;19912;-76
2023/10/20 09:10:18;;;;;;;;;;;15.60;87.20;;;;;;5106222;28;20015;-76
2023/10/20 09:12:44;;;;;;;;;;;15.60;87.20;;;;;;5095525;27;20069;-76
2023/10/20 09:15:11;;;;;;;;;;;15.60;87.20;;;;;;5117469;27;19920;-75
2023/10/20 09:17:36;;;;;;;;;;;15.60;87.20;;;;;;5118915;27;20004;-74
2023/10/20 09:20:06;;;;;;;;;;;15.70;87.20;;;;;;5114748;27;20015;-75
2023/10/20 09:22:31;;;;;;;;;;;15.70;87.20;;;;;;5096310;27;19916;-75
2023/10/20 09:24:57;;;;;;;;;;;15.70;87.20;;;;;;5120246;27;19907;-74
2023/10/20 09:27:23;;;;;;;;;;;15.70;87.20;;;;;;5122755;27;19908;-74
2023/10/20 09:29:50;;;;;;;;;;;15.70;87.10;;;;;;5102154;28;20022;-74
2023/10/20 09:32:15;;;;;;;;;;;15.70;87.10;;;;;;5111005;27;20271;-74
2023/10/20 09:34:41;;;;;;;;;;;15.70;87.10;;;;;;5116167;27;19911;-75
2023/10/20 09:37:09;;;;;;;;;;;15.70;87.00;;;;;;5110273;28;19908;-74
2023/10/20 09:39:38;;;;;;;;;;;15.70;87.00;;;;;;5114451;27;19911;-72
2023/10/20 09:42:05;;;;;;;;;;;15.70;87.00;;;;;;5113961;27;20664;-76
2023/10/20 09:44:37;;;;;;;;;;;15.60;87.10;;;;;;5112168;27;19925;-75
2023/10/20 09:47:25;;;;;;;;;;;15.50;87.20;;;;;;5115412;27;20224;-74
2023/10/20 09:49:51;;;;;;;;;;;15.50;87.30;;;;;;5107695;27;19916;-73
2023/10/20 09:52:17;;;;;;;;;;;15.40;87.20;;;;;;5110459;28;19958;-73
2023/10/20 09:54:43;;;;;;;;;;;15.30;87.40;;;;;;5098402;27;20116;-74
2023/10/20 09:57:08;;;;;;;;;;;15.20;87.60;;;;;;5120604;27;19965;-74
2023/10/20 09:59:37;;;;;;;;;;;15.20;87.60;;;;;;5093544;28;19919;-74
2023/10/20 10:02:03;;;;;;;;;;;15.10;87.60;;;;;;5113314;27;19938;-73
2023/10/20 10:04:31;;;;;;;;;;;15.10;87.50;;;;;;5110504;28;19918;-72
2023/10/20 10:07:03;;;;;;;;;;;15.10;87.70;;;;;;5111162;28;19915;-77
2023/10/20 10:09:40;;;;;;;;;;;15.20;87.80;;;;;;5111338;28;20042;-71
2023/10/20 10:12:09;;;;;;;;;;;15.20;87.70;;;;;;5111051;28;19988;-72
2023/10/20 10:14:35;;;;;;;;;;;15.30;87.60;;;;;;5092306;28;19947;-72
2023/10/20 10:17:01;;;;;;;;;;;15.30;87.60;;;;;;5110291;28;20053;-64
2023/10/20 10:19:27;;;;;;;;;;;15.30;87.50;;;;;;5092118;28;20411;-72
2023/10/20 10:21:54;;;;;;;;;;;15.30;87.50;;;;;;5110727;28;19912;-71
2023/10/20 10:24:21;;;;;;;;;;;15.40;87.60;;;;;;5110676;28;19930;-73
2023/10/20 10:26:51;;;;;;;;;;;15.40;87.50;;;;;;5109747;28;19919;-72
2023/10/20 10:29:18;;;;;;;;;;;15.40;87.60;;;;;;5109483;28;19907;-71
2023/10/20 10:31:44;;;;;;;;;;;15.40;87.60;;;;;;5091947;28;19998;-73
2023/10/20 10:34:10;;;;;;;;;;;15.40;87.50;;;;;;5092214;28;20006;-73
2023/10/20 10:36:48;;;;;;;;;;;15.50;87.40;;;;;;5110227;28;19937;-72
2023/10/20 10:39:40;;;;;;;;;;;15.50;87.40;;;;;;5110751;28;19908;-71
2023/10/20 10:42:06;;;;;;;;;;;15.50;87.40;;;;;;5088782;28;19912;-73
2023/10/20 10:44:33;;;;;;;;;;;15.50;87.40;;;;;;5109926;28;19923;-75
2023/10/20 10:47:00;;;;;;;;;;;15.50;87.40;;;;;;5110456;28;19924;-73
2023/10/20 10:49:25;;;;;;;;;;;15.50;87.30;;;;;;5110682;28;19939;-75
2023/10/20 10:51:52;;;;;;;;;;;15.50;87.20;;;;;;5109936;28;19959;-74
2023/10/20 10:54:18;;;;;;;;;;;15.30;87.20;;;;;;5090822;28;19950;-72
2023/10/20 10:56:44;;;;;;;;;;;15.10;87.20;;;;;;5110083;28;20371;-72
2023/10/20 10:59:11;;;;;;;;;;;15.00;87.40;;;;;;5094132;28;19995;-73
2023/10/20 11:01:40;;;;;;;;;;;14.90;87.50;;;;;;5092377;28;19908;-74
2023/10/20 11:04:09;;;;;;;;;;;14.80;87.60;;;;;;5104867;28;19977;-73
2023/10/20 11:06:37;;;;;;;;;;;14.70;87.60;;;;;;5108176;28;19908;-78
2023/10/20 11:09:10;;;;;;;;;;;14.60;88.20;;;;;;5091305;28;19954;-73
2023/10/20 11:11:42;;;;;;;;;;;14.50;88.10;;;;;;5109513;27;20006;-73
2023/10/20 11:14:09;;;;;;;;;;;14.40;87.80;;;;;;5109028;28;19947;-74
2023/10/20 11:16:38;;;;;;;;;;;14.40;87.80;;;;;;5108331;28;20368;-74
2023/10/20 11:19:04;;;;;;;;;;;14.30;87.80;;;;;;5118378;27;19919;-75
2023/10/20 11:21:41;;;;;;;;;;;14.20;87.80;;;;;;5112705;27;19919;-72
2023/10/20 11:24:08;;;;;;;;;;;14.10;87.80;;;;;;5110198;28;19964;-71
2023/10/20 11:26:35;;;;;;;;;;;14.00;87.70;;;;;;5110152;28;19953;-79
2023/10/20 11:29:07;;;;;;;;;;;14.00;87.70;;;;;;5091817;28;20319;-74
2023/10/20 11:31:34;;;;;;;;;;;13.90;87.80;;;;;;5109414;28;20359;-74
2023/10/20 11:34:00;;;;;;;;;;;13.90;87.90;;;;;;5109618;28;19918;-70
2023/10/20 11:36:26;;;;;;;;;;;13.80;87.90;;;;;;5109532;28;20293;-73
2023/10/20 11:38:51;;;;;;;;;;;13.80;88.00;;;;;;5109359;28;20373;-73
2023/10/20 11:41:17;;;;;;;;;;;13.80;87.90;;;;;;5109554;28;19920;-72
2023/10/20 11:43:42;;;;;;;;;;;13.80;87.90;;;;;;5091493;28;19912;-72
2023/10/20 11:46:11;;;;;;;;;;;13.80;87.90;;;;;;5109519;28;20264;-72
2023/10/20 11:48:36;;;;;;;;;;;13.80;87.90;;;;;;5091801;28;20315;-79
2023/10/20 11:51:02;;;;;;;;;;;13.80;87.90;;;;;;5091964;28;19912;-72
2023/10/20 11:53:28;;;;;;;;;;;13.70;87.70;;;;;;5109704;28;19918;-69
2023/10/20 11:55:54;;;;;;;;;;;13.70;87.90;;;;;;5091582;28;20286;-74
2023/10/20 11:58:20;;;;;;;;;;;13.70;87.90;;;;;;5110023;28;19912;-75
2023/10/20 12:00:46;;;;;;;;;;;13.70;88.00;;;;;;5091308;28;19919;-78
2023/10/20 12:03:11;;;;;;;;;;;13.80;87.80;;;;;;5109386;28;19947;-74
2023/10/20 12:05:37;;;;;;;;;;;13.70;87.70;;;;;;5091028;28;19915;-75
2023/10/20 12:08:04;;;;;;;;;;;13.70;87.70;;;;;;5109270;28;19921;-74
2023/10/20 12:10:33;;;;;;;;;;;13.70;87.60;;;;;;5091147;28;20081;-75
2023/10/20 12:13:04;;;;;;;;;;;13.60;87.60;;;;;;5108516;28;19927;-62
2023/10/20 12:15:30;;;;;;;;;;;13.60;87.60;;;;;;5109673;28;19912;-76
2023/10/20 12:17:57;;;;;;;;;;;13.50;87.70;;;;;;5110180;28;19915;-75
2023/10/20 12:20:23;;;;;;;;;;;13.50;87.80;;;;;;5109955;28;19912;-75
2023/10/20 12:22:54;;;;;;;;;;;13.50;87.80;;;;;;5109256;28;19919;-77
2023/10/20 12:25:20;;;;;;;;;;;13.50;87.70;;;;;;5112794;28;19977;-71
2023/10/20 12:27:46;;;;;;;;;;;13.40;87.80;;;;;;5094248;28;19920;-74
2023/10/20 12:30:12;;;;;;;;;;;13.40;87.80;;;;;;5112785;28;19912;-74
2023/10/20 12:32:37;;;;;;;;;;;13.50;87.70;;;;;;5113087;28;20397;-74
2023/10/20 12:35:04;;;;;;;;;;;13.50;87.60;;;;;;5112096;28;19956;-70
2023/10/20 12:37:32;;;;;;;;;;;13.40;87.50;;;;;;5112438;28;19924;-70
2023/10/20 12:39:59;;;;;;;;;;;13.40;87.60;;;;;;5112409;28;20002;-72
2023/10/20 12:42:27;;;;;;;;;;;13.40;87.60;;;;;;5112728;28;19918;-74
2023/10/20 12:44:52;;;;;;;;;;;13.30;87.60;;;;;;5112752;28;19908;-74
2023/10/20 12:47:19;;;;;;;;;;;13.20;87.70;;;;;;5112639;28;19918;-74
2023/10/20 12:49:45;;;;;;;;;;;13.20;87.60;;;;;;5112133;28;19943;-60
2023/10/20 12:52:12;;;;;;;;;;;13.20;87.80;;;;;;5098166;28;20382;-73
2023/10/20 12:54:37;;;;;;;;;;;13.20;87.80;;;;;;5091802;28;19935;-73
2023/10/20 12:57:03;;;;;;;;;;;13.20;87.80;;;;;;5091842;28;20380;-73
2023/10/20 12:59:29;;;;;;;;;;;13.20;87.60;;;;;;5092084;28;19908;-73
2023/10/20 13:01:55;;;;;;;;;;;13.20;87.60;;;;;;5091369;28;19916;-73
2023/10/20 13:04:21;;;;;;;;;;;13.10;87.50;;;;;;5091623;28;19955;-77
2023/10/20 13:06:47;;;;;;;;;;;13.10;87.50;;;;;;5091232;28;20463;-69
2023/10/20 13:09:12;;;;;;;;;;;13.10;87.60;;;;;;5091460;28;19954;-71
2023/10/20 13:11:39;;;;;;;;;;;13.10;87.60;;;;;;5072746;28;20237;-68
2023/10/20 13:14:04;;;;;;;;;;;13.00;87.50;;;;;;5072891;28;19997;-73
2023/10/20 13:16:30;;;;;;;;;;;13.00;87.50;;;;;;5091920;28;20379;-73
2023/10/20 13:18:56;;;;;;;;;;;12.90;87.50;;;;;;5111823;28;19911;-73
2023/10/20 13:21:21;;;;;;;;;;;12.90;87.50;;;;;;5093213;28;19912;-76
2023/10/20 13:23:47;;;;;;;;;;;12.80;87.50;;;;;;5075961;28;19911;-75
2023/10/20 13:26:13;;;;;;;;;;;12.70;87.50;;;;;;5093047;28;19960;-71
2023/10/20 13:28:38;;;;;;;;;;;12.70;87.50;;;;;;5093356;28;19920;-73
2023/10/20 13:31:14;;;;;;;;;;;12.70;87.70;;;;;;5114307;27;20312;-73
2023/10/20 13:33:40;;;;;;;;;;;12.70;87.60;;;;;;5111473;28;20356;-72
2023/10/20 13:36:07;;;;;;;;;;;12.60;87.60;;;;;;5075587;28;20023;-73
2023/10/20 13:38:35;;;;;;;;;;;12.60;87.60;;;;;;5119523;27;19915;-73
2023/10/20 13:41:02;;;;;;;;;;;12.60;87.60;;;;;;5111666;28;19916;-74
2023/10/20 13:43:27;;;;;;;;;;;12.70;87.60;;;;;;5111450;28;20406;-74
2023/10/20 13:45:53;;;;;;;;;;;12.70;87.50;;;;;;5111614;28;20063;-74
2023/10/20 13:48:19;;;;;;;;;;;12.70;87.40;;;;;;5110770;28;19964;-73
2023/10/20 13:50:44;;;;;;;;;;;12.60;87.40;;;;;;5093593;27;19916;-72
2023/10/20 13:53:13;;;;;;;;;;;12.60;87.40;;;;;;5102644;28;19977;-74
2023/10/20 13:55:38;;;;;;;;;;;12.70;87.50;;;;;;5111324;28;19930;-73
2023/10/20 13:58:04;;;;;;;;;;;12.70;87.50;;;;;;5092181;28;19916;-74
2023/10/20 14:00:33;;;;;;;;;;;12.70;87.40;;;;;;5091795;28;19920;-71
2023/10/20 14:02:59;;;;;;;;;;;12.70;87.40;;;;;;5088618;28;20063;-72
2023/10/20 14:05:25;;;;;;;;;;;12.70;87.40;;;;;;5072121;28;19957;-75
2023/10/20 14:07:51;;;;;;;;;;;12.70;87.30;;;;;;5090260;28;19924;-72
2023/10/20 14:10:17;;;;;;;;;;;12.70;87.30;;;;;;5087804;28;19912;-73
2023/10/20 14:12:43;;;;;;;;;;;12.60;87.30;;;;;;5089605;28;19916;-72
2023/10/20 14:15:09;;;;;;;;;;;12.60;87.50;;;;;;5090518;28;19993;-72
2023/10/20 14:17:34;;;;;;;;;;;12.60;87.50;;;;;;5089375;28;20308;-72
2023/10/20 14:20:00;;;;;;;;;;;12.60;87.40;;;;;;5071877;28;20001;-72
2023/10/20 14:22:26;;;;;;;;;;;12.60;87.50;;;;;;5090397;28;19930;-73
2023/10/20 14:24:51;;;;;;;;;;;12.50;87.50;;;;;;5090468;28;19916;-74
2023/10/20 14:27:17;;;;;;;;;;;12.50;87.50;;;;;;5090173;28;19908;-73
2023/10/20 14:29:43;;;;;;;;;;;12.50;87.60;;;;;;5088849;28;19977;-72
2023/10/20 14:32:11;;;;;;;;;;;12.50;87.50;;;;;;5089730;28;20369;-73
2023/10/20 14:34:37;;;;;;;;;;;12.40;87.50;;;;;;5089608;28;20325;-76
2023/10/20 14:37:03;;;;;;;;;;;12.40;87.60;;;;;;5090207;28;19912;-73
2023/10/20 14:39:29;;;;;;;;;;;12.40;87.70;;;;;;5090003;28;19913;-75
2023/10/20 14:41:55;;;;;;;;;;;12.40;87.60;;;;;;5074932;28;19991;-73
2023/10/20 14:44:20;;;;;;;;;;;12.30;87.50;;;;;;5088536;28;19951;-74
2023/10/20 14:46:46;;;;;;;;;;;12.30;87.50;;;;;;5089536;28;19917;-75